Time,TemperatureF,DewpointF,PressureIn,WindDirection,WindDirectionDegrees,WindSpeedMPH,WindSpeedGustMPH,Humidity,HourlyPrecipIn,Conditions,Clouds,dailyrainin,SolarRadiationWatts/m^2,SoftwareType,DateUTC
2013-01-17 00:22:00,21.0,14.0,-100.00,ENE,69,5.0,7.0,75,0.00,,,0.00,1.000000,,2013-01-17 08:22:00,
2013-01-17 00:32:00,21.0,14.0,-100.00,ENE,69,5.0,7.0,75,0.00,,,0.00,1.000000,,2013-01-17 08:32:00,
2013-01-17 00:43:00,21.0,14.0,-100.00,ENE,69,5.0,7.0,75,0.00,,,0.00,1.000000,,2013-01-17 08:43:00,
2013-01-17 00:52:00,21.0,14.0,-100.00,ENE,69,5.0,7.0,75,0.00,,,0.00,1.000000,,2013-01-17 08:52:00,
2013-01-17 01:22:00,19.0,13.0,-100.00,ENE,68,4.0,8.0,76,0.00,,,0.00,1.000000,,2013-01-17 09:22:00,
2013-01-17 01:32:00,19.0,13.0,-100.00,ENE,68,4.0,8.0,76,0.00,,,0.00,1.000000,,2013-01-17 09:32:00,
2013-01-17 01:42:00,19.0,13.0,-100.00,ENE,68,4.0,8.0,76,0.00,,,0.00,1.000000,,2013-01-17 09:42:00,
2013-01-17 01:52:00,19.0,13.0,-100.00,ENE,68,4.0,8.0,76,0.00,,,0.00,1.000000,,2013-01-17 09:52:00,
2013-01-17 02:22:00,17.0,12.0,-100.00,ENE,74,5.0,8.0,81,0.00,,,0.00,1.000000,,2013-01-17 10:22:00,
2013-01-17 02:32:00,17.0,12.0,-100.00,ENE,74,5.0,8.0,81,0.00,,,0.00,1.000000,,2013-01-17 10:32:00,
2013-01-17 02:42:00,17.0,12.0,-100.00,ENE,74,5.0,8.0,81,0.00,,,0.00,1.000000,,2013-01-17 10:42:00,
2013-01-17 02:52:00,17.0,12.0,-100.00,ENE,74,5.0,8.0,81,0.00,,,0.00,1.000000,,2013-01-17 10:52:00,
2013-01-17 03:22:00,17.0,12.0,-100.00,ENE,68,7.0,9.0,79,0.00,,,0.00,1.000000,,2013-01-17 11:22:00,
2013-01-17 03:32:00,17.0,12.0,-100.00,ENE,68,7.0,9.0,79,0.00,,,0.00,1.000000,,2013-01-17 11:32:00,
2013-01-17 03:42:00,17.0,12.0,-100.00,ENE,68,7.0,9.0,79,0.00,,,0.00,1.000000,,2013-01-17 11:42:00,
2013-01-17 03:52:00,17.0,12.0,-100.00,ENE,68,7.0,9.0,79,0.00,,,0.00,1.000000,,2013-01-17 11:52:00,
2013-01-17 04:22:00,15.0,10.0,-100.00,ENE,75,5.0,10.0,81,0.00,,,0.00,1.000000,,2013-01-17 12:22:00,
2013-01-17 04:32:00,15.0,10.0,-100.00,ENE,75,5.0,10.0,81,0.00,,,0.00,1.000000,,2013-01-17 12:32:00,
2013-01-17 04:42:00,15.0,10.0,-100.00,ENE,75,5.0,10.0,81,0.00,,,0.00,1.000000,,2013-01-17 12:42:00,
2013-01-17 04:52:00,15.0,10.0,-100.00,ENE,75,5.0,10.0,81,0.00,,,0.00,1.000000,,2013-01-17 12:52:00,
2013-01-17 05:22:00,13.0,9.0,-100.00,ENE,69,5.0,9.0,85,0.00,,,-99.99,1.000000,,2013-01-17 13:22:00,
2013-01-17 05:33:00,13.0,9.0,-100.00,ENE,69,5.0,9.0,85,0.00,,,-99.99,1.000000,,2013-01-17 13:33:00,
2013-01-17 05:42:00,13.0,9.0,-100.00,ENE,69,5.0,9.0,85,0.00,,,-99.99,1.000000,,2013-01-17 13:42:00,
2013-01-17 05:52:00,13.0,9.0,-100.00,ENE,69,5.0,9.0,85,0.00,,,-99.99,1.000000,,2013-01-17 13:52:00,
2013-01-17 06:23:00,13.0,10.0,-100.00,ENE,72,7.0,9.0,87,0.00,,,-99.99,1.000000,,2013-01-17 14:23:00,
2013-01-17 06:33:00,13.0,10.0,-100.00,ENE,72,7.0,9.0,87,0.00,,,-99.99,1.000000,,2013-01-17 14:33:00,
2013-01-17 06:42:00,13.0,10.0,-100.00,ENE,72,7.0,9.0,87,0.00,,,-99.99,1.000000,,2013-01-17 14:42:00,
2013-01-17 06:52:00,13.0,10.0,-100.00,ENE,72,7.0,9.0,87,0.00,,,-99.99,1.000000,,2013-01-17 14:52:00,
2013-01-17 07:22:00,12.0,9.0,-100.00,ENE,64,7.0,10.0,86,0.00,,,0.00,1.000000,,2013-01-17 15:22:00,
2013-01-17 07:33:00,12.0,9.0,-100.00,ENE,64,7.0,10.0,86,0.00,,,0.00,1.000000,,2013-01-17 15:33:00,
2013-01-17 07:43:00,12.0,9.0,-100.00,ENE,64,7.0,10.0,86,0.00,,,0.00,1.000000,,2013-01-17 15:43:00,
2013-01-17 07:52:00,12.0,9.0,-100.00,ENE,64,7.0,10.0,86,0.00,,,0.00,1.000000,,2013-01-17 15:52:00,
2013-01-17 08:22:00,15.0,11.0,-100.00,ENE,62,6.0,10.0,82,0.00,,,0.00,5.000000,,2013-01-17 16:22:00,
2013-01-17 08:33:00,15.0,11.0,-100.00,ENE,62,6.0,10.0,82,0.00,,,0.00,5.000000,,2013-01-17 16:33:00,
2013-01-17 08:43:00,15.0,11.0,-100.00,ENE,62,6.0,10.0,82,0.00,,,0.00,5.000000,,2013-01-17 16:43:00,
2013-01-17 08:52:00,15.0,11.0,-100.00,ENE,62,6.0,10.0,82,0.00,,,0.00,5.000000,,2013-01-17 16:52:00,
2013-01-17 09:22:00,16.0,9.0,-100.00,East,84,5.0,11.0,75,0.00,,,0.00,52.000000,,2013-01-17 17:22:00,
2013-01-17 09:33:00,16.0,9.0,-100.00,East,84,5.0,11.0,75,0.00,,,0.00,52.000000,,2013-01-17 17:33:00,
2013-01-17 09:43:00,16.0,9.0,-100.00,East,84,5.0,11.0,75,0.00,,,0.00,52.000000,,2013-01-17 17:43:00,
2013-01-17 09:53:00,16.0,9.0,-100.00,East,84,5.0,11.0,75,0.00,,,0.00,52.000000,,2013-01-17 17:53:00,
2013-01-17 10:22:00,22.0,12.0,-100.00,ENE,62,6.0,11.0,65,0.00,,,0.00,142.000000,,2013-01-17 18:22:00,
2013-01-17 10:33:00,22.0,12.0,-100.00,ENE,62,6.0,11.0,65,0.00,,,0.00,142.000000,,2013-01-17 18:33:00,
2013-01-17 10:43:00,22.0,12.0,-100.00,ENE,62,6.0,11.0,65,0.00,,,0.00,142.000000,,2013-01-17 18:43:00,
2013-01-17 10:52:00,22.0,12.0,-100.00,ENE,62,6.0,11.0,65,0.00,,,0.00,142.000000,,2013-01-17 18:52:00,
2013-01-17 12:22:00,38.0,20.0,-100.00,WSW,238,3.0,6.0,47,-99.99,,,0.00,452.000000,,2013-01-17 20:22:00,
2013-01-17 12:33:00,38.0,20.0,-100.00,WSW,238,3.0,6.0,47,-99.99,,,0.00,452.000000,,2013-01-17 20:33:00,
2013-01-17 12:43:00,38.0,20.0,-100.00,WSW,238,3.0,6.0,47,-99.99,,,0.00,452.000000,,2013-01-17 20:43:00,
2013-01-17 12:53:00,38.0,20.0,-100.00,WSW,238,3.0,6.0,47,-99.99,,,0.00,452.000000,,2013-01-17 20:53:00,
2013-01-17 13:23:00,40.0,20.0,-100.00,WSW,240,3.0,4.0,44,0.00,,,0.00,510.000000,,2013-01-17 21:23:00,
2013-01-17 13:33:00,40.0,20.0,-100.00,WSW,240,3.0,4.0,44,0.00,,,0.00,510.000000,,2013-01-17 21:33:00,
2013-01-17 13:42:00,40.0,20.0,-100.00,WSW,240,3.0,4.0,44,0.00,,,0.00,510.000000,,2013-01-17 21:42:00,
2013-01-17 13:52:00,40.0,20.0,-100.00,WSW,240,3.0,4.0,44,0.00,,,0.00,510.000000,,2013-01-17 21:52:00,
2013-01-17 14:22:00,40.0,20.0,-100.00,WSW,242,4.0,5.0,44,0.00,,,0.00,480.000000,,2013-01-17 22:22:00,
2013-01-17 14:33:00,40.0,20.0,-100.00,WSW,242,4.0,5.0,44,0.00,,,0.00,480.000000,,2013-01-17 22:33:00,
2013-01-17 14:42:00,40.0,20.0,-100.00,WSW,242,4.0,5.0,44,0.00,,,0.00,480.000000,,2013-01-17 22:42:00,
2013-01-17 14:52:00,40.0,20.0,-100.00,WSW,242,4.0,5.0,44,0.00,,,0.00,480.000000,,2013-01-17 22:52:00,
2013-01-17 15:22:00,39.0,19.0,-100.00,WSW,246,5.0,6.0,45,0.00,,,0.00,393.000000,,2013-01-17 23:22:00,
2013-01-17 15:32:00,39.0,19.0,-100.00,WSW,246,5.0,6.0,45,0.00,,,0.00,393.000000,,2013-01-17 23:32:00,
2013-01-17 15:42:00,39.0,19.0,-100.00,WSW,246,5.0,6.0,45,0.00,,,0.00,393.000000,,2013-01-17 23:42:00,
2013-01-17 15:52:00,39.0,19.0,-100.00,WSW,246,5.0,6.0,45,0.00,,,0.00,393.000000,,2013-01-17 23:52:00,
2013-01-17 16:23:00,37.0,16.0,-100.00,WSW,248,5.0,6.0,42,0.00,,,0.00,262.000000,,2013-01-18 00:23:00,
2013-01-17 16:32:00,37.0,16.0,-100.00,WSW,248,5.0,6.0,42,0.00,,,0.00,262.000000,,2013-01-18 00:32:00,
2013-01-17 16:42:00,37.0,16.0,-100.00,WSW,248,5.0,6.0,42,0.00,,,0.00,262.000000,,2013-01-18 00:42:00,
2013-01-17 16:52:00,37.0,16.0,-100.00,WSW,248,5.0,6.0,42,0.00,,,0.00,262.000000,,2013-01-18 00:52:00,
2013-01-17 17:22:00,35.0,17.0,-100.00,SSW,206,3.0,7.0,47,0.00,,,0.00,94.000000,,2013-01-18 01:22:00,
2013-01-17 17:33:00,35.0,17.0,-100.00,SSW,206,3.0,7.0,47,0.00,,,0.00,94.000000,,2013-01-18 01:33:00,
2013-01-17 17:42:00,35.0,17.0,-100.00,SSW,206,3.0,7.0,47,0.00,,,0.00,94.000000,,2013-01-18 01:42:00,
2013-01-17 17:52:00,35.0,17.0,-100.00,SSW,206,3.0,7.0,47,0.00,,,0.00,94.000000,,2013-01-18 01:52:00,
2013-01-17 18:22:00,31.0,15.0,-100.00,SW,225,3.0,4.0,51,0.00,,,0.00,3.000000,,2013-01-18 02:22:00,
2013-01-17 18:32:00,31.0,15.0,-100.00,SW,225,3.0,4.0,51,0.00,,,0.00,3.000000,,2013-01-18 02:32:00,
2013-01-17 18:42:00,31.0,15.0,-100.00,SW,225,3.0,4.0,51,0.00,,,0.00,3.000000,,2013-01-18 02:42:00,
2013-01-17 18:52:00,31.0,15.0,-100.00,SW,225,3.0,4.0,51,0.00,,,0.00,3.000000,,2013-01-18 02:52:00,
2013-01-17 19:22:00,30.0,16.0,-100.00,ENE,68,2.0,3.0,56,0.00,,,0.00,1.000000,,2013-01-18 03:22:00,
2013-01-17 19:33:00,30.0,16.0,-100.00,ENE,68,2.0,3.0,56,0.00,,,0.00,1.000000,,2013-01-18 03:33:00,
2013-01-17 19:42:00,30.0,16.0,-100.00,ENE,68,2.0,3.0,56,0.00,,,0.00,1.000000,,2013-01-18 03:42:00,
2013-01-17 19:52:00,30.0,16.0,-100.00,ENE,68,2.0,3.0,56,0.00,,,0.00,1.000000,,2013-01-18 03:52:00,
2013-01-17 20:22:00,28.0,16.0,-100.00,ENE,76,3.0,5.0,60,0.00,,,0.00,1.000000,,2013-01-18 04:22:00,
2013-01-17 20:32:00,28.0,16.0,-100.00,ENE,76,3.0,5.0,60,0.00,,,0.00,1.000000,,2013-01-18 04:32:00,
2013-01-17 20:42:00,28.0,16.0,-100.00,ENE,76,3.0,5.0,60,0.00,,,0.00,1.000000,,2013-01-18 04:42:00,
2013-01-17 20:52:00,28.0,16.0,-100.00,ENE,76,3.0,5.0,60,0.00,,,0.00,1.000000,,2013-01-18 04:52:00,
2013-01-17 21:22:00,25.0,16.0,-100.00,East,82,4.0,6.0,69,0.00,,,0.00,1.000000,,2013-01-18 05:22:00,
2013-01-17 21:33:00,25.0,16.0,-100.00,East,82,4.0,6.0,69,0.00,,,0.00,1.000000,,2013-01-18 05:33:00,
2013-01-17 21:42:00,25.0,16.0,-100.00,East,82,4.0,6.0,69,0.00,,,0.00,1.000000,,2013-01-18 05:42:00,
2013-01-17 21:52:00,25.0,16.0,-100.00,East,82,4.0,6.0,69,0.00,,,0.00,1.000000,,2013-01-18 05:52:00,
2013-01-17 22:22:00,24.0,16.0,-100.00,ENE,75,5.0,6.0,72,0.00,,,0.00,1.000000,,2013-01-18 06:22:00,
2013-01-17 22:32:00,24.0,16.0,-100.00,ENE,75,5.0,6.0,72,0.00,,,0.00,1.000000,,2013-01-18 06:32:00,
2013-01-17 22:43:00,24.0,16.0,-100.00,ENE,75,5.0,6.0,72,0.00,,,0.00,1.000000,,2013-01-18 06:43:00,
2013-01-17 22:52:00,24.0,16.0,-100.00,ENE,75,5.0,6.0,72,0.00,,,0.00,1.000000,,2013-01-18 06:52:00,
2013-01-17 23:22:00,25.0,15.0,-100.00,ENE,70,6.0,8.0,64,0.00,,,0.00,1.000000,,2013-01-18 07:22:00,
2013-01-17 23:32:00,25.0,15.0,-100.00,ENE,70,6.0,8.0,64,0.00,,,0.00,1.000000,,2013-01-18 07:32:00,
2013-01-17 23:42:00,25.0,15.0,-100.00,ENE,70,6.0,8.0,64,0.00,,,0.00,1.000000,,2013-01-18 07:42:00,
2013-01-17 23:52:00,25.0,15.0,-100.00,ENE,70,6.0,8.0,64,0.00,,,0.00,1.000000,,2013-01-18 07:52:00,